Arklow Mill — EIJD9 — position and weather

sailwx.info

Track history (hours):
 
Tides and Currents Weather Stations Pressure Air Temp Water Temp Dewpoint Dewpoint Depression Visibility Wind Speed Wind Dir Waves Ship Positions

Arklow Mill

Last reported at 2015-Mar-28 21:20 UTC. Time now 2015-Mar-31 02:03 UTC.
Position N 50°03' W 002°32'.

Length 137 m; draft 8.4 m.

Type: Ship. MMSI: 250002022.

Date/timePositionNaut miles runAvg speedWind from/ knotsBaromVisibWave heightAir tempDewpointWater temp
2015-Mar-28 21:20N 50°03' W 002°32'99 9.0
2015-Mar-28 10:21N 50°32' W 000°02'911.0
2015-Mar-28 09:33N 50°34' E 000°11'1111.2
2015-Mar-28 08:33N 50°37' E 000°28'1111.0
2015-Mar-28 07:33N 50°42' E 000°43'1111.2
2015-Mar-28 06:33N 50°49' E 000°58'10 9.8
2015-Mar-28 05:31N 50°55' E 001°10'9 9.4
2015-Mar-28 04:34N 51°01' E 001°21'10 9.6
2015-Mar-28 03:33N 51°07' E 001°33'1111.0
2015-Mar-28 02:33N 51°15' E 001°46'1212.1
2015-Mar-28 01:33N 51°25' E 001°54'1212.0
2015-Mar-28 00:33N 51°35' E 002°06'1311.5
2015-Mar-27 23:24N 51°45' E 002°20'137 9.8
2015-Mar-27 09:29N 53°30' E 004°45'7 7.9
2015-Mar-27 08:33N 53°32' E 004°56'9 9.1
2015-Mar-27 07:33N 53°35' E 005°11'10 9.6
2015-Mar-27 06:33N 53°38' E 005°26'1010.3
2015-Mar-27 05:33N 53°41' E 005°42'1010.5
2015-Mar-27 04:33N 53°45' E 005°59'42 9.8
2015-Mar-27 00:17N 53°55' E 007°08'7 9.7
2015-Mar-26 23:33N 53°57' E 007°19'1010.4
2015-Mar-26 22:33N 53°59' E 007°37'1110.7
2015-Mar-26 21:33N 53°52' E 007°51'1211.7
2015-Mar-26 20:33N 53°48' E 008°09'1413.8
2015-Mar-26 19:33N 53°38' E 008°26'9 9.0
2015-Mar-26 18:33N 53°30' E 008°30'1010.4
2015-Mar-26 17:33N 53°19' E 008°29'8 8.4
2015-Mar-26 16:34N 53°11' E 008°32'7 7.0
2015-Mar-26 15:34N 53°07' E 008°42'1 0.9
2015-Mar-26 14:31N 53°07' E 008°43'0 0.2
2015-Mar-26 13:31N 53°08' E 008°43'0 0.0
2015-Mar-26 12:31N 53°08' E 008°43'0 0.0
2015-Mar-26 11:31N 53°08' E 008°43'0 0.0
2015-Mar-26 10:31N 53°08' E 008°43'0 0.0
2015-Mar-26 09:31N 53°08' E 008°43'0 0.1
2015-Mar-26 08:31N 53°08' E 008°43'0 0.0
2015-Mar-26 07:31N 53°08' E 008°43'0 0.0
2015-Mar-26 06:31N 53°08' E 008°43'0 0.0
2015-Mar-26 05:31N 53°08' E 008°43'0 0.0
2015-Mar-26 04:31N 53°08' E 008°43'0 0.0
2015-Mar-26 03:31N 53°08' E 008°43'0 0.0
2015-Mar-26 02:31N 53°08' E 008°43'0 0.0
2015-Mar-26 01:31N 53°08' E 008°43'0 0.0
2015-Mar-26 00:31N 53°08' E 008°43'0 0.0
2015-Mar-25 23:31N 53°08' E 008°43'0 0.0
2015-Mar-25 22:31N 53°08' E 008°43'0 0.0
2015-Mar-25 21:31N 53°08' E 008°43'0 0.0
2015-Mar-25 20:31N 53°08' E 008°43'0 0.0
2015-Mar-25 19:31N 53°08' E 008°43'0 0.0
2015-Mar-25 18:31N 53°08' E 008°43'0 0.0
2015-Mar-25 17:31N 53°08' E 008°43'0 0.0
2015-Mar-25 16:31N 53°08' E 008°43'0 0.0
2015-Mar-25 15:31N 53°08' E 008°43'0 0.0
2015-Mar-25 14:31N 53°08' E 008°43'0 0.0
2015-Mar-25 13:31N 53°08' E 008°43'0 0.0
2015-Mar-25 12:31N 53°08' E 008°43'0 0.0
2015-Mar-25 11:32N 53°08' E 008°43'0 0.0
2015-Mar-25 10:31N 53°08' E 008°43'0 0.0
2015-Mar-25 09:31N 53°08' E 008°43'0 0.0
2015-Mar-25 08:31N 53°08' E 008°43'0 0.0
2015-Mar-25 07:31N 53°08' E 008°43'0 0.0
2015-Mar-25 06:31N 53°08' E 008°43'0 0.0
2015-Mar-25 05:31N 53°08' E 008°43'0 0.0
2015-Mar-25 04:31N 53°08' E 008°43'0 0.0
2015-Mar-25 03:31N 53°08' E 008°43'0 0.0
2015-Mar-25 02:31N 53°08' E 008°43'0 0.0
2015-Mar-25 01:31N 53°08' E 008°43'0 0.0
2015-Mar-25 00:31N 53°08' E 008°43'0 0.0
2015-Mar-24 23:31N 53°08' E 008°43'0 0.0
2015-Mar-24 22:31N 53°08' E 008°43'0 0.0
2015-Mar-24 21:31N 53°08' E 008°43'0 0.0
2015-Mar-24 20:31N 53°08' E 008°43'0 0.0
2015-Mar-24 19:31N 53°08' E 008°43'0 0.0
2015-Mar-24 18:31N 53°08' E 008°43'0 0.0
2015-Mar-24 17:31N 53°08' E 008°43'0 0.0
2015-Mar-24 16:31N 53°08' E 008°43'0 0.0
2015-Mar-24 15:31N 53°08' E 008°43'0 0.0
2015-Mar-24 14:31N 53°08' E 008°43'0 0.4
2015-Mar-24 13:34N 53°07' E 008°43'3 2.6
2015-Mar-24 12:34N 53°08' E 008°38'9 9.0
2015-Mar-24 11:33N 53°15' E 008°29'1110.8
2015-Mar-24 10:33N 53°26' E 008°30'10 9.7
2015-Mar-24 09:34N 53°35' E 008°31'1110.7
2015-Mar-24 08:33N 53°43' E 008°18'1010.3
2015-Mar-24 07:33N 53°50' E 008°05'9 9.3
2015-Mar-24 06:33N 53°54' E 007°51'0 0.4
2015-Mar-24 05:30N 53°54' E 007°50'0 0.0
2015-Mar-24 04:31N 53°54' E 007°50'0 0.0
2015-Mar-24 03:27N 53°54' E 007°50'0 0.1
2015-Mar-24 02:33N 53°54' E 007°51'0 0.0
2015-Mar-24 01:33N 53°54' E 007°51'0 0.0
2015-Mar-24 00:15N 53°54' E 007°51'0 0.0
2015-Mar-23 23:21N 53°54' E 007°51'0 0.0
2015-Mar-23 22:33N 53°54' E 007°51'0 0.0
2015-Mar-23 21:33N 53°54' E 007°51'0 0.0
2015-Mar-23 20:33N 53°54' E 007°51'0 0.0
2015-Mar-23 19:30N 53°54' E 007°51'0 0.1
2015-Mar-23 18:15N 53°54' E 007°51'0 0.0
2015-Mar-23 17:33N 53°54' E 007°50'0 0.0
2015-Mar-23 16:33N 53°54' E 007°50'0 0.1
2015-Mar-23 15:24N 53°54' E 007°51'0 0.1
2015-Mar-23 14:30N 53°54' E 007°51'0 0.0
2015-Mar-23 13:33N 53°54' E 007°51'0 0.0
2015-Mar-23 12:33N 53°54' E 007°51'0 0.0
2015-Mar-23 11:24N 53°54' E 007°51'0 0.0
2015-Mar-23 10:21N 53°54' E 007°51'0 0.0
2015-Mar-23 09:30N 53°54' E 007°51'0 0.0
2015-Mar-23 08:33N 53°54' E 007°51'0 0.1
2015-Mar-23 07:33N 53°54' E 007°51'0 0.0
2015-Mar-23 06:30N 53°54' E 007°50'0 0.0
2015-Mar-23 05:30N 53°54' E 007°50'0 0.0
2015-Mar-23 04:33N 53°54' E 007°50'0 0.0
2015-Mar-23 03:15N 53°54' E 007°50'0 0.0
2015-Mar-23 02:33N 53°54' E 007°50'0 0.0
2015-Mar-23 01:33N 53°54' E 007°51'0 0.0
2015-Mar-23 00:27N 53°54' E 007°51'0 0.0
2015-Mar-22 23:33N 53°54' E 007°51'0 0.0
2015-Mar-22 22:33N 53°54' E 007°51'0 0.0
2015-Mar-22 21:33N 53°54' E 007°51'0 0.0
2015-Mar-22 20:33N 53°54' E 007°51'0 0.1
2015-Mar-22 19:30N 53°54' E 007°50'0 0.0
2015-Mar-22 18:27N 53°54' E 007°50'0 0.0
2015-Mar-22 17:18N 53°54' E 007°50'0 0.0
2015-Mar-22 16:27N 53°54' E 007°50'0 0.0
2015-Mar-22 15:33N 53°54' E 007°50'0 0.0
2015-Mar-22 14:33N 53°54' E 007°50'0 0.0
2015-Mar-22 13:30N 53°54' E 007°50'0 0.0
2015-Mar-22 12:33N 53°54' E 007°50'0 0.1
2015-Mar-22 11:30N 53°54' E 007°51'0 0.0
2015-Mar-22 10:30N 53°54' E 007°51'0 0.0
2015-Mar-22 09:27N 53°54' E 007°51'0 0.1
2015-Mar-22 08:33N 53°54' E 007°50'0 0.1
2015-Mar-22 07:15N 53°54' E 007°50'0 0.0
2015-Mar-22 06:24N 53°54' E 007°50'0 0.0
2015-Mar-22 05:30N 53°54' E 007°50'0 0.0
2015-Mar-22 04:27N 53°54' E 007°50'0 0.0
2015-Mar-22 03:30N 53°54' E 007°50'0 0.0
2015-Mar-22 02:12N 53°54' E 007°50'0 0.0
2015-Mar-22 01:27N 53°54' E 007°50'0 0.0
2015-Mar-22 00:27N 53°54' E 007°50'0 0.1
2015-Mar-21 23:33N 53°54' E 007°50'0 0.0
2015-Mar-21 22:33N 53°54' E 007°50'0 0.0
2015-Mar-21 21:27N 53°54' E 007°50'0 0.0
2015-Mar-21 20:30N 53°54' E 007°50'0 0.1
2015-Mar-21 19:30N 53°54' E 007°50'0 0.0
2015-Mar-21 18:30N 53°54' E 007°50'0 0.0
2015-Mar-21 17:30N 53°54' E 007°50'0 0.0
2015-Mar-21 16:30N 53°54' E 007°50'0 0.0
2015-Mar-21 15:33N 53°54' E 007°50'0 0.0
2015-Mar-21 14:33N 53°54' E 007°50'0 0.0
2015-Mar-21 13:30N 53°54' E 007°50'0 0.1
2015-Mar-21 12:30N 53°54' E 007°51'0 0.0
2015-Mar-21 11:24N 53°54' E 007°51'0 0.1
2015-Mar-21 10:30N 53°54' E 007°51'0 0.0
2015-Mar-21 09:30N 53°54' E 007°51'0 0.0
2015-Mar-21 08:27N 53°54' E 007°51'0 0.0
2015-Mar-21 07:24N 53°54' E 007°51'0 0.0
2015-Mar-21 06:24N 53°54' E 007°51'0 0.0
2015-Mar-21 05:30N 53°54' E 007°51'0 0.1
2015-Mar-21 04:27N 53°54' E 007°51'0 0.1
2015-Mar-21 03:24N 53°54' E 007°50'0 0.1
2015-Mar-21 02:30N 53°54' E 007°51'0 0.1
2015-Mar-21 01:27N 53°54' E 007°51'0 0.0
2015-Mar-21 00:30N 53°54' E 007°51'4 3.5
2015-Mar-20 23:27N 53°53' E 007°45'1011.3
2015-Mar-20 22:34N 53°54' E 007°28'4012.6
2015-Mar-20 19:23N 53°50' E 006°20'911.1
2015-Mar-20 18:33N 53°54' E 006°06'1413.6
2015-Mar-20 17:33N 53°55' E 005°43'1313.0
2015-Mar-20 16:34N 53°57' E 005°21'1312.6
2015-Mar-20 15:30N 53°58' E 004°59'15312.4
2015-Mar-20 03:05N 53°34' E 000°42'712.4
2015-Mar-20 02:33N 53°33' E 000°31'1111.5
2015-Mar-20 01:33N 53°33' E 000°12'1010.4
2015-Mar-20 00:33N 53°36' W 000°04'4 4.5
2015-Mar-19 23:33N 53°38' W 000°11'0 0.3
2015-Mar-19 22:34N 53°38' W 000°12'0 0.0
2015-Mar-19 21:27N 53°38' W 000°12'0 0.0
2015-Mar-19 20:33N 53°38' W 000°12'0 0.0
2015-Mar-19 19:33N 53°38' W 000°12'0 0.0
2015-Mar-19 18:33N 53°38' W 000°12'0 0.0
2015-Mar-19 17:33N 53°38' W 000°12'0 0.0
2015-Mar-19 16:30N 53°38' W 000°12'0 0.0
2015-Mar-19 15:33N 53°38' W 000°12'0 0.0
2015-Mar-19 14:33N 53°38' W 000°12'0 0.0
2015-Mar-19 13:33N 53°38' W 000°12'0 0.0
2015-Mar-19 12:33N 53°38' W 000°12'0 0.0
2015-Mar-19 11:30N 53°38' W 000°12'0 0.0
2015-Mar-19 10:33N 53°38' W 000°12'0 0.0
2015-Mar-19 09:33N 53°38' W 000°12'0 0.0
2015-Mar-19 08:33N 53°38' W 000°12'0 0.0
2015-Mar-19 07:34N 53°38' W 000°12'0 0.0
2015-Mar-19 06:33N 53°38' W 000°12'0 0.0
2015-Mar-19 05:33N 53°38' W 000°12'0 0.0
2015-Mar-19 04:33N 53°38' W 000°12'0 0.0
2015-Mar-19 03:33N 53°38' W 000°12'0 0.0
2015-Mar-19 02:33N 53°38' W 000°12'0 0.0
2015-Mar-19 01:33N 53°38' W 000°12'0 0.0
2015-Mar-19 00:33N 53°38' W 000°12'0 0.0
2015-Mar-18 23:34N 53°38' W 000°12'0 0.0
2015-Mar-18 22:33N 53°38' W 000°12'0 0.0
2015-Mar-18 21:33N 53°38' W 000°12'  
Track history (hours):
 
Tides and Currents Weather Stations Pressure Air Temp Water Temp Dewpoint Dewpoint Depression Visibility Wind Speed Wind Dir Waves Ship Positions

Arklow Mill

Last reported at 2015-Mar-28 21:20 UTC. Time now 2015-Mar-31 02:03 UTC.
Position N 50°03' W 002°32'.

Length 137 m; draft 8.4 m.

Type: Ship. MMSI: 250002022.

Date/timePositionNaut miles runAvg speedWind from/ knotsBaromVisibWave heightAir tempDewpointWater temp
2015-Mar-28 21:20N 50°03' W 002°32'99 9.0
2015-Mar-28 10:21N 50°32' W 000°02'911.0
2015-Mar-28 09:33N 50°34' E 000°11'1111.2
2015-Mar-28 08:33N 50°37' E 000°28'1111.0
2015-Mar-28 07:33N 50°42' E 000°43'1111.2
2015-Mar-28 06:33N 50°49' E 000°58'10 9.8
2015-Mar-28 05:31N 50°55' E 001°10'9 9.4
2015-Mar-28 04:34N 51°01' E 001°21'10 9.6
2015-Mar-28 03:33N 51°07' E 001°33'1111.0
2015-Mar-28 02:33N 51°15' E 001°46'1212.1
2015-Mar-28 01:33N 51°25' E 001°54'1212.0
2015-Mar-28 00:33N 51°35' E 002°06'1311.5
2015-Mar-27 23:24N 51°45' E 002°20'137 9.8
2015-Mar-27 09:29N 53°30' E 004°45'7 7.9
2015-Mar-27 08:33N 53°32' E 004°56'9 9.1
2015-Mar-27 07:33N 53°35' E 005°11'10 9.6
2015-Mar-27 06:33N 53°38' E 005°26'1010.3
2015-Mar-27 05:33N 53°41' E 005°42'1010.5
2015-Mar-27 04:33N 53°45' E 005°59'42 9.8
2015-Mar-27 00:17N 53°55' E 007°08'7 9.7
2015-Mar-26 23:33N 53°57' E 007°19'1010.4
2015-Mar-26 22:33N 53°59' E 007°37'1110.7
2015-Mar-26 21:33N 53°52' E 007°51'1211.7
2015-Mar-26 20:33N 53°48' E 008°09'1413.8
2015-Mar-26 19:33N 53°38' E 008°26'9 9.0
2015-Mar-26 18:33N 53°30' E 008°30'1010.4
2015-Mar-26 17:33N 53°19' E 008°29'8 8.4
2015-Mar-26 16:34N 53°11' E 008°32'7 7.0
2015-Mar-26 15:34N 53°07' E 008°42'1 0.9
2015-Mar-26 14:31N 53°07' E 008°43'0 0.2
2015-Mar-26 13:31N 53°08' E 008°43'0 0.0
2015-Mar-26 12:31N 53°08' E 008°43'0 0.0
2015-Mar-26 11:31N 53°08' E 008°43'0 0.0
2015-Mar-26 10:31N 53°08' E 008°43'0 0.0
2015-Mar-26 09:31N 53°08' E 008°43'0 0.1
2015-Mar-26 08:31N 53°08' E 008°43'0 0.0
2015-Mar-26 07:31N 53°08' E 008°43'0 0.0
2015-Mar-26 06:31N 53°08' E 008°43'0 0.0
2015-Mar-26 05:31N 53°08' E 008°43'0 0.0
2015-Mar-26 04:31N 53°08' E 008°43'0 0.0
2015-Mar-26 03:31N 53°08' E 008°43'0 0.0
2015-Mar-26 02:31N 53°08' E 008°43'0 0.0
2015-Mar-26 01:31N 53°08' E 008°43'0 0.0
2015-Mar-26 00:31N 53°08' E 008°43'0 0.0
2015-Mar-25 23:31N 53°08' E 008°43'0 0.0
2015-Mar-25 22:31N 53°08' E 008°43'0 0.0
2015-Mar-25 21:31N 53°08' E 008°43'0 0.0
2015-Mar-25 20:31N 53°08' E 008°43'0 0.0
2015-Mar-25 19:31N 53°08' E 008°43'0 0.0
2015-Mar-25 18:31N 53°08' E 008°43'0 0.0
2015-Mar-25 17:31N 53°08' E 008°43'0 0.0
2015-Mar-25 16:31N 53°08' E 008°43'0 0.0
2015-Mar-25 15:31N 53°08' E 008°43'0 0.0
2015-Mar-25 14:31N 53°08' E 008°43'0 0.0
2015-Mar-25 13:31N 53°08' E 008°43'0 0.0
2015-Mar-25 12:31N 53°08' E 008°43'0 0.0
2015-Mar-25 11:32N 53°08' E 008°43'0 0.0
2015-Mar-25 10:31N 53°08' E 008°43'0 0.0
2015-Mar-25 09:31N 53°08' E 008°43'0 0.0
2015-Mar-25 08:31N 53°08' E 008°43'0 0.0
2015-Mar-25 07:31N 53°08' E 008°43'0 0.0
2015-Mar-25 06:31N 53°08' E 008°43'0 0.0
2015-Mar-25 05:31N 53°08' E 008°43'0 0.0
2015-Mar-25 04:31N 53°08' E 008°43'0 0.0
2015-Mar-25 03:31N 53°08' E 008°43'0 0.0
2015-Mar-25 02:31N 53°08' E 008°43'0 0.0
2015-Mar-25 01:31N 53°08' E 008°43'0 0.0
2015-Mar-25 00:31N 53°08' E 008°43'0 0.0
2015-Mar-24 23:31N 53°08' E 008°43'0 0.0
2015-Mar-24 22:31N 53°08' E 008°43'0 0.0
2015-Mar-24 21:31N 53°08' E 008°43'0 0.0
2015-Mar-24 20:31N 53°08' E 008°43'0 0.0
2015-Mar-24 19:31N 53°08' E 008°43'0 0.0
2015-Mar-24 18:31N 53°08' E 008°43'0 0.0
2015-Mar-24 17:31N 53°08' E 008°43'0 0.0
2015-Mar-24 16:31N 53°08' E 008°43'0 0.0
2015-Mar-24 15:31N 53°08' E 008°43'0 0.0
2015-Mar-24 14:31N 53°08' E 008°43'0 0.4
2015-Mar-24 13:34N 53°07' E 008°43'3 2.6
2015-Mar-24 12:34N 53°08' E 008°38'9 9.0
2015-Mar-24 11:33N 53°15' E 008°29'1110.8
2015-Mar-24 10:33N 53°26' E 008°30'10 9.7
2015-Mar-24 09:34N 53°35' E 008°31'1110.7
2015-Mar-24 08:33N 53°43' E 008°18'1010.3
2015-Mar-24 07:33N 53°50' E 008°05'9 9.3
2015-Mar-24 06:33N 53°54' E 007°51'0 0.4
2015-Mar-24 05:30N 53°54' E 007°50'0 0.0
2015-Mar-24 04:31N 53°54' E 007°50'0 0.0
2015-Mar-24 03:27N 53°54' E 007°50'0 0.1
2015-Mar-24 02:33N 53°54' E 007°51'0 0.0
2015-Mar-24 01:33N 53°54' E 007°51'0 0.0
2015-Mar-24 00:15N 53°54' E 007°51'0 0.0
2015-Mar-23 23:21N 53°54' E 007°51'0 0.0
2015-Mar-23 22:33N 53°54' E 007°51'0 0.0
2015-Mar-23 21:33N 53°54' E 007°51'0 0.0
2015-Mar-23 20:33N 53°54' E 007°51'0 0.0
2015-Mar-23 19:30N 53°54' E 007°51'0 0.1
2015-Mar-23 18:15N 53°54' E 007°51'0 0.0
2015-Mar-23 17:33N 53°54' E 007°50'0 0.0
2015-Mar-23 16:33N 53°54' E 007°50'0 0.1
2015-Mar-23 15:24N 53°54' E 007°51'0 0.1
2015-Mar-23 14:30N 53°54' E 007°51'0 0.0
2015-Mar-23 13:33N 53°54' E 007°51'0 0.0
2015-Mar-23 12:33N 53°54' E 007°51'0 0.0
2015-Mar-23 11:24N 53°54' E 007°51'0 0.0
2015-Mar-23 10:21N 53°54' E 007°51'0 0.0
2015-Mar-23 09:30N 53°54' E 007°51'0 0.0
2015-Mar-23 08:33N 53°54' E 007°51'0 0.1
2015-Mar-23 07:33N 53°54' E 007°51'0 0.0
2015-Mar-23 06:30N 53°54' E 007°50'0 0.0
2015-Mar-23 05:30N 53°54' E 007°50'0 0.0
2015-Mar-23 04:33N 53°54' E 007°50'0 0.0
2015-Mar-23 03:15N 53°54' E 007°50'0 0.0
2015-Mar-23 02:33N 53°54' E 007°50'0 0.0
2015-Mar-23 01:33N 53°54' E 007°51'0 0.0
2015-Mar-23 00:27N 53°54' E 007°51'0 0.0
2015-Mar-22 23:33N 53°54' E 007°51'0 0.0
2015-Mar-22 22:33N 53°54' E 007°51'0 0.0
2015-Mar-22 21:33N 53°54' E 007°51'0 0.0
2015-Mar-22 20:33N 53°54' E 007°51'0 0.1
2015-Mar-22 19:30N 53°54' E 007°50'0 0.0
2015-Mar-22 18:27N 53°54' E 007°50'0 0.0
2015-Mar-22 17:18N 53°54' E 007°50'0 0.0
2015-Mar-22 16:27N 53°54' E 007°50'0 0.0
2015-Mar-22 15:33N 53°54' E 007°50'0 0.0
2015-Mar-22 14:33N 53°54' E 007°50'0 0.0
2015-Mar-22 13:30N 53°54' E 007°50'0 0.0
2015-Mar-22 12:33N 53°54' E 007°50'0 0.1
2015-Mar-22 11:30N 53°54' E 007°51'0 0.0
2015-Mar-22 10:30N 53°54' E 007°51'0 0.0
2015-Mar-22 09:27N 53°54' E 007°51'0 0.1
2015-Mar-22 08:33N 53°54' E 007°50'0 0.1
2015-Mar-22 07:15N 53°54' E 007°50'0 0.0
2015-Mar-22 06:24N 53°54' E 007°50'0 0.0
2015-Mar-22 05:30N 53°54' E 007°50'0 0.0
2015-Mar-22 04:27N 53°54' E 007°50'0 0.0
2015-Mar-22 03:30N 53°54' E 007°50'0 0.0
2015-Mar-22 02:12N 53°54' E 007°50'0 0.0
2015-Mar-22 01:27N 53°54' E 007°50'0 0.0
2015-Mar-22 00:27N 53°54' E 007°50'0 0.1
2015-Mar-21 23:33N 53°54' E 007°50'0 0.0
2015-Mar-21 22:33N 53°54' E 007°50'0 0.0
2015-Mar-21 21:27N 53°54' E 007°50'0 0.0
2015-Mar-21 20:30N 53°54' E 007°50'0 0.1
2015-Mar-21 19:30N 53°54' E 007°50'0 0.0
2015-Mar-21 18:30N 53°54' E 007°50'0 0.0
2015-Mar-21 17:30N 53°54' E 007°50'0 0.0
2015-Mar-21 16:30N 53°54' E 007°50'0 0.0
2015-Mar-21 15:33N 53°54' E 007°50'0 0.0
2015-Mar-21 14:33N 53°54' E 007°50'0 0.0
2015-Mar-21 13:30N 53°54' E 007°50'0 0.1
2015-Mar-21 12:30N 53°54' E 007°51'0 0.0
2015-Mar-21 11:24N 53°54' E 007°51'0 0.1
2015-Mar-21 10:30N 53°54' E 007°51'0 0.0
2015-Mar-21 09:30N 53°54' E 007°51'0 0.0
2015-Mar-21 08:27N 53°54' E 007°51'0 0.0
2015-Mar-21 07:24N 53°54' E 007°51'0 0.0
2015-Mar-21 06:24N 53°54' E 007°51'0 0.0
2015-Mar-21 05:30N 53°54' E 007°51'0 0.1
2015-Mar-21 04:27N 53°54' E 007°51'0 0.1
2015-Mar-21 03:24N 53°54' E 007°50'0 0.1
2015-Mar-21 02:30N 53°54' E 007°51'0 0.1
2015-Mar-21 01:27N 53°54' E 007°51'0 0.0
2015-Mar-21 00:30N 53°54' E 007°51'4 3.5
2015-Mar-20 23:27N 53°53' E 007°45'1011.3
2015-Mar-20 22:34N 53°54' E 007°28'4012.6
2015-Mar-20 19:23N 53°50' E 006°20'911.1
2015-Mar-20 18:33N 53°54' E 006°06'1413.6
2015-Mar-20 17:33N 53°55' E 005°43'1313.0
2015-Mar-20 16:34N 53°57' E 005°21'1312.6
2015-Mar-20 15:30N 53°58' E 004°59'15312.4
2015-Mar-20 03:05N 53°34' E 000°42'712.4
2015-Mar-20 02:33N 53°33' E 000°31'1111.5
2015-Mar-20 01:33N 53°33' E 000°12'1010.4
2015-Mar-20 00:33N 53°36' W 000°04'4 4.5
2015-Mar-19 23:33N 53°38' W 000°11'0 0.3
2015-Mar-19 22:34N 53°38' W 000°12'0 0.0
2015-Mar-19 21:27N 53°38' W 000°12'0 0.0
2015-Mar-19 20:33N 53°38' W 000°12'0 0.0
2015-Mar-19 19:33N 53°38' W 000°12'0 0.0
2015-Mar-19 18:33N 53°38' W 000°12'0 0.0
2015-Mar-19 17:33N 53°38' W 000°12'0 0.0
2015-Mar-19 16:30N 53°38' W 000°12'0 0.0
2015-Mar-19 15:33N 53°38' W 000°12'0 0.0
2015-Mar-19 14:33N 53°38' W 000°12'0 0.0
2015-Mar-19 13:33N 53°38' W 000°12'0 0.0
2015-Mar-19 12:33N 53°38' W 000°12'0 0.0
2015-Mar-19 11:30N 53°38' W 000°12'0 0.0
2015-Mar-19 10:33N 53°38' W 000°12'0 0.0
2015-Mar-19 09:33N 53°38' W 000°12'0 0.0
2015-Mar-19 08:33N 53°38' W 000°12'0 0.0
2015-Mar-19 07:34N 53°38' W 000°12'0 0.0
2015-Mar-19 06:33N 53°38' W 000°12'0 0.0
2015-Mar-19 05:33N 53°38' W 000°12'0 0.0
2015-Mar-19 04:33N 53°38' W 000°12'0 0.0
2015-Mar-19 03:33N 53°38' W 000°12'0 0.0
2015-Mar-19 02:33N 53°38' W 000°12'0 0.0
2015-Mar-19 01:33N 53°38' W 000°12'0 0.0
2015-Mar-19 00:33N 53°38' W 000°12'0 0.0
2015-Mar-18 23:34N 53°38' W 000°12'0 0.0
2015-Mar-18 22:33N 53°38' W 000°12'0 0.0
2015-Mar-18 21:33N 53°38' W 000°12'  

Dump ship's entire track history